createdAt,value
2019-03-12T00:00:13.679Z,0.28
2019-03-12T00:02:40.447Z,0.24
2019-03-12T00:05:07.813Z,0.13
2019-03-12T00:07:34.708Z,0.06
2019-03-12T00:10:01.728Z,0.00
2019-03-12T00:12:28.471Z,0.10
2019-03-12T00:14:55.255Z,0.02
2019-03-12T00:17:21.986Z,-0.03
2019-03-12T00:19:48.725Z,-0.14
2019-03-12T00:22:15.584Z,-0.01
2019-03-12T00:24:42.341Z,-0.11
2019-03-12T00:27:09.084Z,-0.07
2019-03-12T00:29:35.885Z,-0.14
2019-03-12T00:32:02.600Z,-0.08
2019-03-12T00:34:29.316Z,-0.07
2019-03-12T00:36:56.086Z,-0.19
2019-03-12T00:39:22.840Z,-0.10
2019-03-12T00:41:49.721Z,0.04
2019-03-12T00:44:16.472Z,0.12
2019-03-12T00:46:43.222Z,0.15
2019-03-12T00:49:10.118Z,0.24
2019-03-12T00:51:36.841Z,0.24
2019-03-12T00:54:03.621Z,0.33
2019-03-12T00:56:30.403Z,0.41
2019-03-12T00:58:57.105Z,0.46
2019-03-12T01:01:24.067Z,0.55
2019-03-12T01:03:50.857Z,0.54
2019-03-12T01:06:17.862Z,0.51
2019-03-12T01:08:46.637Z,0.36
2019-03-12T01:11:13.368Z,0.31
2019-03-12T01:13:40.075Z,0.39
2019-03-12T01:16:06.915Z,0.41
2019-03-12T01:18:33.621Z,0.33
2019-03-12T01:21:00.357Z,0.22
2019-03-12T01:23:27.230Z,0.24
2019-03-12T01:25:53.952Z,0.33
2019-03-12T01:28:20.671Z,0.38
2019-03-12T01:30:47.532Z,0.42
2019-03-12T01:33:14.233Z,0.31
2019-03-12T01:35:40.987Z,0.44
2019-03-12T01:38:07.866Z,0.37
2019-03-12T01:40:34.563Z,0.33
2019-03-12T01:43:01.338Z,0.39
2019-03-12T01:45:28.114Z,0.23
2019-03-12T01:47:54.845Z,0.33
2019-03-12T01:50:21.639Z,0.33
2019-03-12T01:52:48.376Z,0.19
2019-03-12T01:55:16.595Z,0.01
2019-03-12T01:57:43.362Z,0.08
2019-03-12T02:00:16.200Z,0.09
2019-03-12T02:02:43.030Z,0.00
2019-03-12T02:05:09.789Z,-0.03
2019-03-12T02:07:36.654Z,0.10
2019-03-12T02:10:06.599Z,0.04
2019-03-12T02:12:33.290Z,0.17
2019-03-12T02:15:00.017Z,0.07
2019-03-12T02:17:26.908Z,0.25
2019-03-12T02:19:53.637Z,0.27
2019-03-12T02:22:20.351Z,0.27
2019-03-12T02:25:09.691Z,0.24
2019-03-12T02:27:36.405Z,0.18
2019-03-12T02:30:08.323Z,0.23
2019-03-12T02:32:35.186Z,0.31
2019-03-12T02:35:02.145Z,0.23
2019-03-12T02:37:28.865Z,0.29
2019-03-12T02:39:55.655Z,0.22
2019-03-12T02:42:22.367Z,0.17
2019-03-12T02:44:49.260Z,0.26
2019-03-12T02:47:16.010Z,0.27
2019-03-12T02:49:42.712Z,0.32
2019-03-12T02:52:09.501Z,0.28
2019-03-12T02:54:36.231Z,0.10
2019-03-12T02:57:03.063Z,0.22
2019-03-12T02:59:29.765Z,0.30
2019-03-12T03:01:56.508Z,0.24
2019-03-12T03:04:23.289Z,0.31
2019-03-12T03:06:49.999Z,0.32
2019-03-12T03:09:16.799Z,0.34
2019-03-12T03:11:43.695Z,0.38
2019-03-12T03:14:33.056Z,0.41
2019-03-12T03:16:59.820Z,0.30
2019-03-12T03:19:26.576Z,0.13
2019-03-12T03:21:53.320Z,-0.05
2019-03-12T03:24:20.095Z,-0.02
2019-03-12T03:26:46.824Z,-0.04
2019-03-12T03:29:13.691Z,-0.11
2019-03-12T03:31:40.422Z,-0.17
2019-03-12T03:34:07.256Z,-0.18
2019-03-12T03:36:34.113Z,-0.11
2019-03-12T03:39:00.919Z,-0.19
2019-03-12T03:41:27.798Z,-0.16
2019-03-12T03:43:54.665Z,-0.12
2019-03-12T03:46:21.393Z,-0.07
2019-03-12T03:48:48.163Z,-0.07
2019-03-12T03:51:14.898Z,-0.07
2019-03-12T03:53:41.618Z,-0.14
2019-03-12T03:56:08.488Z,-0.31
2019-03-12T03:58:35.206Z,-0.25
2019-03-12T04:01:01.941Z,-0.16
2019-03-12T04:03:28.746Z,-0.21
2019-03-12T04:05:55.461Z,-0.32
2019-03-12T04:08:22.293Z,-0.35
2019-03-12T04:10:49.036Z,-0.31
2019-03-12T04:13:15.794Z,-0.28
2019-03-12T04:15:42.606Z,-0.37
2019-03-12T04:18:09.323Z,-0.36
2019-03-12T04:20:36.031Z,-0.55
2019-03-12T04:23:02.933Z,-0.67
2019-03-12T04:25:29.622Z,-0.87
2019-03-12T04:27:56.390Z,-0.95
2019-03-12T04:30:23.171Z,-0.94
2019-03-12T04:32:49.910Z,-0.91
2019-03-12T04:35:27.652Z,-0.90
2019-03-12T04:37:54.366Z,-0.87
2019-03-12T04:40:21.116Z,-0.76
2019-03-12T04:42:48.005Z,-0.91
2019-03-12T04:45:15.746Z,-0.95
2019-03-12T04:47:42.550Z,-1.05
2019-03-12T04:50:09.451Z,-1.00
2019-03-12T04:52:36.190Z,-1.16
2019-03-12T04:55:09.376Z,-1.13
2019-03-12T04:57:36.127Z,-1.25
2019-03-12T05:00:08.180Z,-1.23
2019-03-12T05:02:34.995Z,-1.24
2019-03-12T05:05:01.842Z,-1.16
2019-03-12T05:07:28.574Z,-1.13
2019-03-12T05:09:55.331Z,-1.14
2019-03-12T05:12:22.097Z,-1.11
2019-03-12T05:14:48.993Z,-1.06
2019-03-12T05:17:15.709Z,-0.96
2019-03-12T05:19:42.423Z,-0.99
2019-03-12T05:22:09.217Z,-0.87
2019-03-12T05:24:35.955Z,-0.96
2019-03-12T05:27:02.663Z,-0.85
2019-03-12T05:29:29.543Z,-0.77
2019-03-12T05:31:56.246Z,-0.64
2019-03-12T05:34:23.311Z,-0.76
2019-03-12T05:36:50.289Z,-0.92
2019-03-12T05:39:17.013Z,-1.02
2019-03-12T05:41:43.889Z,-0.95
2019-03-12T05:44:10.624Z,-1.05
2019-03-12T05:46:37.316Z,-0.94
2019-03-12T05:49:04.199Z,-0.85
2019-03-12T05:51:30.915Z,-0.85
2019-03-12T05:53:57.619Z,-0.79
2019-03-12T05:56:24.488Z,-0.77
2019-03-12T05:58:51.216Z,-0.64
2019-03-12T06:01:17.962Z,-0.56
2019-03-12T06:03:44.849Z,-0.52
2019-03-12T06:06:11.584Z,-0.53
2019-03-12T06:08:38.313Z,-0.50
2019-03-12T06:11:05.205Z,-0.66
2019-03-12T06:13:31.987Z,-0.66
2019-03-12T06:15:58.909Z,-0.56
2019-03-12T06:18:25.667Z,-0.67
2019-03-12T06:20:52.383Z,-0.70
2019-03-12T06:23:19.275Z,-0.73
2019-03-12T06:25:46.008Z,-0.68
2019-03-12T06:28:12.726Z,-0.74
2019-03-12T06:30:39.604Z,-0.56
2019-03-12T06:33:06.328Z,-0.47
2019-03-12T06:35:33.039Z,-0.46
2019-03-12T06:37:59.892Z,-0.52
2019-03-12T06:40:26.672Z,-0.39
2019-03-12T06:42:53.389Z,-0.35
2019-03-12T06:45:20.151Z,-0.51
2019-03-12T06:47:46.880Z,-0.47
2019-03-12T06:50:13.760Z,-0.42
2019-03-12T06:52:40.474Z,-0.30
2019-03-12T06:55:07.216Z,-0.17
2019-03-12T06:57:37.997Z,-0.31
2019-03-12T07:00:09.813Z,-0.22
2019-03-12T07:02:36.528Z,-0.21
2019-03-12T07:05:04.801Z,-0.13
2019-03-12T07:07:33.735Z,-0.11
2019-03-12T07:10:00.442Z,-0.17
2019-03-12T07:12:30.917Z,-0.03
2019-03-12T07:14:57.652Z,0.04
2019-03-12T07:17:24.386Z,0.11
2019-03-12T07:19:51.175Z,0.21
2019-03-12T07:22:17.908Z,0.35
2019-03-12T07:24:44.782Z,0.31
2019-03-12T07:27:11.503Z,0.56
2019-03-12T07:29:38.250Z,0.44
2019-03-12T07:32:05.008Z,0.44
2019-03-12T07:34:36.549Z,0.51
2019-03-12T07:37:00.423Z,0.70
2019-03-12T07:39:27.167Z,0.71
2019-03-12T07:41:53.933Z,0.80
2019-03-12T07:44:20.684Z,0.82
2019-03-12T07:46:47.375Z,0.67
2019-03-12T07:49:14.163Z,0.78
2019-03-12T07:51:40.891Z,0.90
2019-03-12T07:54:07.622Z,0.98
2019-03-12T07:56:34.522Z,1.05
2019-03-12T07:59:01.226Z,1.16
2019-03-12T08:01:27.966Z,1.18
2019-03-12T08:03:54.836Z,1.16
2019-03-12T08:06:21.572Z,1.01
2019-03-12T08:08:48.284Z,1.14
2019-03-12T08:11:15.074Z,1.16
2019-03-12T08:13:41.851Z,1.03
2019-03-12T08:16:08.575Z,1.16
2019-03-12T08:18:36.548Z,1.24
2019-03-12T08:21:03.275Z,1.34
2019-03-12T08:23:30.025Z,1.35
2019-03-12T08:25:56.781Z,1.49
2019-03-12T08:28:23.516Z,1.42
2019-03-12T08:30:50.292Z,1.35
2019-03-12T08:33:17.068Z,1.61
2019-03-12T08:35:43.913Z,1.61
2019-03-12T08:38:10.658Z,1.61
2019-03-12T08:40:37.380Z,1.71
2019-03-12T08:43:04.142Z,1.69
2019-03-12T08:45:30.872Z,1.78
2019-03-12T08:47:57.621Z,1.88
2019-03-12T08:50:24.370Z,1.97
2019-03-12T08:52:51.227Z,2.08
2019-03-12T08:55:17.947Z,1.98
2019-03-12T08:57:44.703Z,2.08
2019-03-12T09:00:11.622Z,2.13
2019-03-12T09:02:38.473Z,2.19
2019-03-12T09:05:05.611Z,2.35
2019-03-12T09:07:32.355Z,2.41
2019-03-12T09:09:59.081Z,2.54
2019-03-12T09:12:25.857Z,2.47
2019-03-12T09:14:52.627Z,2.51
2019-03-12T09:17:19.386Z,2.56
2019-03-12T09:19:46.115Z,2.55
2019-03-12T09:22:12.959Z,2.30
2019-03-12T09:24:39.671Z,2.36
2019-03-12T09:27:06.418Z,2.43
2019-03-12T09:29:33.186Z,2.49
2019-03-12T09:31:59.938Z,2.47
2019-03-12T09:34:26.781Z,2.50
2019-03-12T09:36:53.535Z,2.51
2019-03-12T09:39:20.254Z,2.49
2019-03-12T09:41:49.859Z,2.50
2019-03-12T09:44:25.287Z,2.64
2019-03-12T09:46:52.058Z,2.76
2019-03-12T09:49:18.786Z,2.76
2019-03-12T09:51:45.575Z,2.77
2019-03-12T09:54:12.281Z,2.84
2019-03-12T09:56:39.542Z,2.95
2019-03-12T09:59:06.286Z,3.05
2019-03-12T10:01:33.020Z,3.13
2019-03-12T10:03:59.805Z,3.18
2019-03-12T10:06:26.528Z,3.26
2019-03-12T10:08:53.290Z,3.35
2019-03-12T10:11:20.112Z,3.35
2019-03-12T10:13:46.822Z,3.32
2019-03-12T10:16:13.619Z,3.42
2019-03-12T10:18:40.463Z,3.43
2019-03-12T10:21:07.218Z,3.46
2019-03-12T10:23:33.950Z,3.47
2019-03-12T10:26:00.791Z,3.50
2019-03-12T10:28:27.452Z,3.59
2019-03-12T10:30:54.264Z,3.58
2019-03-12T10:33:21.005Z,3.68
2019-03-12T10:35:47.802Z,3.70
2019-03-12T10:39:10.628Z,3.73
2019-03-12T10:41:37.522Z,3.78
2019-03-12T10:44:04.244Z,3.69
2019-03-12T10:46:31.001Z,3.77
2019-03-12T10:48:57.888Z,3.91
2019-03-12T10:51:24.615Z,3.95
2019-03-12T10:53:51.340Z,3.98
2019-03-12T10:56:18.120Z,4.06
2019-03-12T10:58:44.838Z,4.28
2019-03-12T11:01:11.810Z,4.41
2019-03-12T11:03:38.539Z,4.59
2019-03-12T11:06:05.269Z,4.95
2019-03-12T11:08:32.155Z,5.82
2019-03-12T11:10:58.872Z,6.90
2019-03-12T11:13:25.589Z,7.92
2019-03-12T11:15:52.428Z,8.94
2019-03-12T11:18:19.154Z,9.85
2019-03-12T11:20:45.936Z,10.31
2019-03-12T11:23:12.639Z,10.92
2019-03-12T11:25:39.392Z,11.64
2019-03-12T11:28:06.228Z,12.16
2019-03-12T11:30:33.078Z,12.32
2019-03-12T11:32:59.926Z,12.82
2019-03-12T11:35:26.804Z,13.05
2019-03-12T11:37:53.510Z,13.19
2019-03-12T11:40:23.044Z,13.27
2019-03-12T11:42:49.912Z,13.45
2019-03-12T11:45:19.528Z,13.71
2019-03-12T11:47:45.567Z,13.89
2019-03-12T11:50:16.855Z,14.01
2019-03-12T11:52:52.448Z,13.90
2019-03-12T11:55:14.421Z,14.13
2019-03-12T11:57:41.235Z,14.28
2019-03-12T12:00:20.645Z,14.44
2019-03-12T12:02:59.318Z,14.42
2019-03-12T12:05:15.995Z,14.52
2019-03-12T12:07:42.733Z,14.51
2019-03-12T12:10:16.633Z,14.34
2019-03-12T12:12:43.458Z,14.26
2019-03-12T12:15:11.989Z,14.48
2019-03-12T12:17:38.933Z,14.41
2019-03-12T12:20:10.267Z,14.25
2019-03-12T12:22:36.975Z,14.06
2019-03-12T12:25:09.224Z,14.14
2019-03-12T12:27:35.971Z,14.23
2019-03-12T12:30:10.252Z,13.98
2019-03-12T12:32:37.130Z,13.92
2019-03-12T12:35:08.358Z,13.78
2019-03-12T12:37:35.108Z,13.89
2019-03-12T12:40:02.091Z,13.58
2019-03-12T12:42:28.836Z,13.56
2019-03-12T12:44:55.615Z,13.42
2019-03-12T12:47:22.358Z,13.45
2019-03-12T12:49:49.098Z,13.39
2019-03-12T12:52:15.858Z,13.22
2019-03-12T12:54:42.675Z,13.40
2019-03-12T12:57:09.398Z,13.48
2019-03-12T12:59:36.122Z,13.28
2019-03-12T13:02:03.232Z,12.93
2019-03-12T13:04:29.950Z,12.77
2019-03-12T13:06:56.661Z,12.90
2019-03-12T13:09:23.444Z,12.94
2019-03-12T13:11:50.190Z,12.98
2019-03-12T13:14:16.950Z,13.22
2019-03-12T13:16:43.907Z,12.97
2019-03-12T13:19:10.612Z,12.94
2019-03-12T13:21:37.332Z,12.89
2019-03-12T13:24:04.119Z,12.89
2019-03-12T13:26:30.863Z,13.12
2019-03-12T13:28:57.589Z,13.09
2019-03-12T13:31:24.457Z,13.20
2019-03-12T13:33:51.181Z,13.35
2019-03-12T13:36:17.895Z,13.45
2019-03-12T13:38:46.382Z,13.46
2019-03-12T13:41:13.237Z,13.54
2019-03-12T13:43:40.116Z,13.49
2019-03-12T13:46:06.807Z,13.48
2019-03-12T13:48:33.555Z,13.27
2019-03-12T13:51:00.452Z,13.44
2019-03-12T13:53:27.175Z,13.47
2019-03-12T13:55:54.017Z,13.51
2019-03-12T13:58:20.855Z,13.50
2019-03-12T14:00:47.690Z,13.35
2019-03-12T14:03:14.390Z,13.23
2019-03-12T14:05:41.170Z,13.25
2019-03-12T14:08:07.921Z,13.17
2019-03-12T14:10:34.772Z,12.90
2019-03-12T14:13:01.480Z,12.65
2019-03-12T14:15:36.415Z,12.80
2019-03-12T14:18:03.975Z,12.90
2019-03-12T14:20:53.254Z,13.01
2019-03-12T14:23:36.329Z,12.97
2019-03-12T14:26:03.390Z,13.08
2019-03-12T14:28:30.297Z,13.08
2019-03-12T14:30:57.268Z,13.20
2019-03-12T14:33:24.032Z,13.33
2019-03-12T14:35:52.293Z,13.14
2019-03-12T14:38:19.359Z,13.27
2019-03-12T14:40:46.191Z,13.30
2019-03-12T14:43:13.095Z,13.36
2019-03-12T14:45:51.115Z,13.13
2019-03-12T14:48:51.890Z,13.12
2019-03-12T14:51:32.455Z,13.01
2019-03-12T14:54:12.524Z,13.20
2019-03-12T14:56:39.463Z,13.25
2019-03-12T14:59:06.236Z,13.28
2019-03-12T15:01:33.079Z,13.33
2019-03-12T15:03:59.883Z,13.38
2019-03-12T15:06:26.628Z,13.44
2019-03-12T15:08:53.722Z,13.44
2019-03-12T15:11:20.436Z,13.46
2019-03-12T15:13:47.260Z,13.38
2019-03-12T15:16:14.143Z,13.07
2019-03-12T15:18:40.882Z,13.04
2019-03-12T15:21:07.660Z,13.02
2019-03-12T15:23:34.452Z,12.81
2019-03-12T15:26:01.149Z,12.77
2019-03-12T15:28:27.864Z,12.70
2019-03-12T15:30:54.630Z,12.33
2019-03-12T15:33:21.348Z,11.67
2019-03-12T15:35:48.188Z,11.14
2019-03-12T15:38:14.917Z,10.61
2019-03-12T15:40:41.645Z,10.19
2019-03-12T15:43:08.505Z,9.77
2019-03-12T15:45:35.213Z,9.41
2019-03-12T15:48:01.940Z,9.13
2019-03-12T15:50:28.845Z,8.93
2019-03-12T15:52:55.578Z,8.65
2019-03-12T15:55:22.331Z,8.42
2019-03-12T15:57:49.188Z,8.20
2019-03-12T16:00:16.776Z,8.15
2019-03-12T16:02:43.432Z,8.04
2019-03-12T16:05:10.373Z,7.90
2019-03-12T16:07:37.029Z,7.80
2019-03-12T16:10:10.625Z,7.69
2019-03-12T16:12:37.503Z,7.58
2019-03-12T16:15:08.541Z,7.46
2019-03-12T16:17:35.294Z,7.35
2019-03-12T16:20:04.818Z,7.20
2019-03-12T16:22:32.254Z,7.07
2019-03-12T16:24:58.932Z,6.97
2019-03-12T16:27:25.880Z,6.85
2019-03-12T16:29:52.740Z,6.66
2019-03-12T16:32:19.564Z,6.52
2019-03-12T16:34:46.348Z,6.38
2019-03-12T16:37:18.581Z,6.17
2019-03-12T16:39:45.473Z,5.97
2019-03-12T16:42:12.365Z,5.85
2019-03-12T16:44:39.029Z,5.76
2019-03-12T16:47:06.022Z,5.69
2019-03-12T16:49:32.724Z,5.59
2019-03-12T16:51:59.475Z,5.53
2019-03-12T16:54:26.596Z,5.39
2019-03-12T16:56:53.432Z,5.26
2019-03-12T16:59:20.160Z,5.20
2019-03-12T17:01:47.040Z,5.09
2019-03-12T17:04:13.798Z,5.01
2019-03-12T17:06:40.501Z,4.96
2019-03-12T17:09:09.006Z,4.97
2019-03-12T17:11:35.722Z,4.94
2019-03-12T17:14:02.561Z,4.77
2019-03-12T17:16:29.356Z,4.63
2019-03-12T17:18:56.397Z,4.51
2019-03-12T17:21:23.210Z,4.39
2019-03-12T17:23:50.397Z,4.28
2019-03-12T17:26:17.447Z,4.18
2019-03-12T17:28:44.583Z,4.12
2019-03-12T17:31:12.180Z,4.12
2019-03-12T17:33:39.397Z,4.13
2019-03-12T17:36:06.530Z,4.12
2019-03-12T17:38:45.963Z,4.06
2019-03-12T17:41:02.880Z,3.97
2019-03-12T17:43:30.265Z,3.87
2019-03-12T17:45:57.789Z,3.80
2019-03-12T17:48:24.937Z,3.75
2019-03-12T17:50:52.259Z,3.68
2019-03-12T17:53:19.602Z,3.63
2019-03-12T17:55:46.727Z,3.55
2019-03-12T17:58:13.876Z,3.56
2019-03-12T18:00:41.134Z,3.53
2019-03-12T18:03:08.265Z,3.49
2019-03-12T18:05:35.561Z,3.45
2019-03-12T18:08:02.846Z,3.40
2019-03-12T18:10:30.162Z,3.36
2019-03-12T18:12:57.312Z,3.32
2019-03-12T18:15:24.582Z,3.23
2019-03-12T18:17:51.796Z,3.22
2019-03-12T18:20:21.863Z,3.19
2019-03-12T18:22:52.056Z,3.14
2019-03-12T18:25:33.754Z,3.05
2019-03-12T18:28:01.031Z,3.00
2019-03-12T18:30:28.349Z,2.89
2019-03-12T18:32:55.479Z,2.82
2019-03-12T18:35:22.969Z,2.81
2019-03-12T18:37:50.163Z,2.80
2019-03-12T18:40:25.173Z,2.79
2019-03-12T18:42:52.457Z,2.75
2019-03-12T18:45:33.675Z,2.71
2019-03-12T18:48:00.851Z,2.69
2019-03-12T18:50:28.057Z,2.62
2019-03-12T18:52:55.452Z,2.58
2019-03-12T18:55:38.364Z,2.56
2019-03-12T18:58:06.467Z,2.55
2019-03-12T19:00:34.496Z,2.48
2019-03-12T19:03:01.610Z,2.46
2019-03-12T19:05:28.939Z,2.48
2019-03-12T19:07:56.182Z,2.50
2019-03-12T19:10:23.402Z,2.49
2019-03-12T19:12:50.652Z,2.48
2019-03-12T19:15:17.790Z,2.50
2019-03-12T19:17:44.829Z,2.43
2019-03-12T19:20:17.481Z,2.46
2019-03-12T19:22:44.579Z,2.45
2019-03-12T19:25:34.578Z,2.41
2019-03-12T19:28:01.730Z,2.40
2019-03-12T19:30:33.674Z,2.40
2019-03-12T19:33:00.918Z,2.43
2019-03-12T19:35:30.012Z,2.49
2019-03-12T19:37:59.110Z,2.53
2019-03-12T19:40:44.567Z,2.56
2019-03-12T19:43:12.045Z,2.53
2019-03-12T19:45:39.359Z,2.48
2019-03-12T19:48:06.764Z,2.44
2019-03-12T19:50:34.785Z,2.39
2019-03-12T19:53:02.350Z,2.46
2019-03-12T19:55:57.927Z,2.47
2019-03-12T19:58:28.164Z,2.46
2019-03-12T20:00:56.574Z,2.34
2019-03-12T20:03:23.965Z,2.31
2019-03-12T20:05:51.313Z,2.27
2019-03-12T20:08:18.656Z,2.21
2019-03-12T20:11:02.991Z,2.18
2019-03-12T20:14:24.417Z,2.12
2019-03-12T20:17:16.231Z,2.08
2019-03-12T20:20:37.538Z,1.95
2019-03-12T20:23:36.999Z,1.94
2019-03-12T20:27:01.008Z,1.86
2019-03-12T20:29:58.817Z,1.82
2019-03-12T20:32:48.900Z,1.76
2019-03-12T20:35:32.698Z,1.76
2019-03-12T20:38:52.908Z,1.78
2019-03-12T20:42:00.347Z,1.81
2019-03-12T20:44:59.593Z,1.68
2019-03-12T20:47:50.116Z,1.60
2019-03-12T20:50:48.050Z,1.60
2019-03-12T20:54:07.423Z,1.60
2019-03-12T20:57:29.924Z,1.58
2019-03-12T21:00:11.098Z,1.55
2019-03-12T21:03:01.641Z,1.55
2019-03-12T21:06:04.125Z,1.56
2019-03-12T21:08:48.193Z,1.54
2019-03-12T21:12:03.153Z,1.54
2019-03-12T21:15:15.214Z,1.59
2019-03-12T21:18:33.471Z,1.54
2019-03-12T21:21:39.399Z,1.50
2019-03-12T21:24:36.103Z,1.47
2019-03-12T21:27:14.190Z,1.51
2019-03-12T21:29:43.014Z,1.53
2019-03-12T21:32:11.781Z,1.56
2019-03-12T21:34:38.851Z,1.59
2019-03-12T21:37:05.867Z,1.58
2019-03-12T21:39:32.839Z,1.58
2019-03-12T21:41:59.658Z,1.62
2019-03-12T21:44:26.553Z,1.61
2019-03-12T21:46:53.449Z,1.64
2019-03-12T21:49:20.307Z,1.62
2019-03-12T21:51:47.500Z,1.56
2019-03-12T21:54:14.283Z,1.53
2019-03-12T21:56:41.145Z,1.53
2019-03-12T21:59:07.981Z,1.55
2019-03-12T22:01:34.961Z,1.48
2019-03-12T22:04:01.728Z,1.42
2019-03-12T22:06:28.623Z,1.39
2019-03-12T22:08:55.578Z,1.33
2019-03-12T22:11:22.336Z,1.32
2019-03-12T22:13:49.080Z,1.29
2019-03-12T22:16:15.825Z,1.24
2019-03-12T22:18:42.571Z,1.23
2019-03-12T22:21:09.463Z,1.23
2019-03-12T22:23:36.183Z,1.22
2019-03-12T22:26:02.903Z,1.22
2019-03-12T22:28:29.711Z,1.18
2019-03-12T22:30:56.551Z,1.17
2019-03-12T22:33:23.415Z,1.18
2019-03-12T22:35:50.286Z,1.16
2019-03-12T22:38:16.986Z,1.18
2019-03-12T22:40:43.734Z,1.16
2019-03-12T22:43:10.461Z,1.14
2019-03-12T22:45:37.487Z,1.16
2019-03-12T22:48:04.165Z,1.17
2019-03-12T22:50:31.062Z,1.13
2019-03-12T22:52:57.803Z,1.08
2019-03-12T22:55:24.539Z,1.12
2019-03-12T22:57:51.604Z,1.11
2019-03-12T23:00:20.116Z,1.08
2019-03-12T23:02:46.958Z,1.06
2019-03-12T23:05:14.377Z,1.01
2019-03-12T23:07:41.118Z,1.02
2019-03-12T23:10:11.176Z,1.08
2019-03-12T23:12:38.231Z,1.12
2019-03-12T23:15:14.036Z,1.04
2019-03-12T23:17:40.778Z,1.02
2019-03-12T23:20:11.908Z,0.98
2019-03-12T23:22:38.790Z,0.95
2019-03-12T23:25:07.620Z,0.93
2019-03-12T23:27:34.344Z,0.90
2019-03-12T23:30:01.175Z,0.90
2019-03-12T23:32:27.935Z,0.85
2019-03-12T23:34:54.689Z,0.80
2019-03-12T23:37:21.520Z,0.83
2019-03-12T23:39:48.230Z,0.87
2019-03-12T23:42:14.937Z,0.90
2019-03-12T23:44:41.713Z,0.90
2019-03-12T23:47:08.414Z,0.88
2019-03-12T23:49:35.284Z,0.84
2019-03-12T23:52:02.065Z,0.86
2019-03-12T23:54:29.131Z,0.88
2019-03-12T23:56:56.045Z,0.88
2019-03-12T23:59:22.774Z,0.87
